Weser, Texas
Current Conditions -  °F | °C
As of 3:15 AM on Sunday 21 Dec 2014 (Local Time) from KBEA Reporting Station
Broken Clouds Broken Clouds  
Wind Chill: 11°   Ceiling: 1600
Heat Index: 11°   Visibility: 10mi
Dew Point: 11°   Wind: 5mph
Humidity: 97%   Direction: 80°E
Pressure: 30.11"   Gusts: NA
Location:  28.6563°N, 97.4287°W
Report Text: KBEA 210915Z AUTO 08004KT 10SM BKN016 BKN080 11/11 A3011 RMK AO2 T01090105
Loading
Personal Weather Stations






























Interactive Weather Map New forecast layout! Learn more

10-Day Weather Forecast

Advertisements
Track Severe Weather on mobile